createdAt,value
2022-11-12T00:00:00.316Z,2.70
2022-11-12T00:05:41.707Z,2.60
2022-11-12T00:11:02.895Z,2.50
2022-11-12T00:16:24.130Z,2.60
2022-11-12T00:21:45.190Z,2.30
2022-11-12T00:27:06.505Z,2.30
2022-11-12T00:32:27.788Z,2.30
2022-11-12T00:37:53.088Z,2.20
2022-11-12T00:43:14.235Z,2.10
2022-11-12T00:48:35.419Z,2.00
2022-11-12T00:53:56.408Z,1.90
2022-11-12T00:59:17.261Z,1.60
2022-11-12T01:04:38.195Z,1.70
2022-11-12T01:09:58.983Z,1.80
2022-11-12T01:15:20.485Z,1.80
2022-11-12T01:20:41.896Z,1.80
2022-11-12T01:26:12.908Z,1.70
2022-11-12T01:31:37.033Z,1.70
2022-11-12T01:36:57.902Z,1.70
2022-11-12T01:42:19.246Z,1.50
2022-11-12T01:47:40.041Z,1.40
2022-11-12T01:53:11.432Z,1.30
2022-11-12T01:58:33.772Z,1.40
2022-11-12T02:03:56.491Z,1.40
2022-11-12T02:09:17.954Z,1.50
2022-11-12T02:14:39.208Z,1.30
2022-11-12T02:20:01.615Z,1.10
2022-11-12T02:25:24.893Z,1.10
2022-11-12T02:30:49.424Z,1.10
2022-11-12T02:36:12.216Z,1.00
2022-11-12T02:41:33.270Z,1.20
2022-11-12T02:46:54.429Z,1.20
2022-11-12T02:52:15.441Z,1.20
2022-11-12T02:57:37.737Z,1.30
2022-11-12T03:03:01.760Z,1.40
2022-11-12T03:08:23.223Z,1.30
2022-11-12T03:13:44.486Z,1.60
2022-11-12T03:19:05.513Z,1.90
2022-11-12T03:24:26.396Z,2.30
2022-11-12T03:29:47.333Z,2.60
2022-11-12T03:35:08.876Z,2.90
2022-11-12T03:40:30.722Z,3.10
2022-11-12T03:45:51.912Z,3.30
2022-11-12T03:51:16.395Z,3.60
2022-11-12T03:56:37.418Z,3.90
2022-11-12T04:01:59.737Z,4.10
2022-11-12T04:07:39.151Z,4.20
2022-11-12T04:13:18.608Z,4.30
2022-11-12T04:18:58.401Z,4.30
2022-11-12T04:24:39.737Z,4.50
2022-11-12T04:30:16.854Z,4.70
2022-11-12T04:35:38.992Z,4.80
2022-11-12T04:41:19.014Z,4.90
2022-11-12T04:46:40.138Z,4.90
2022-11-12T04:52:06.795Z,5.00
2022-11-12T04:57:28.197Z,5.00
2022-11-12T05:02:52.631Z,5.10
2022-11-12T05:08:13.569Z,5.20
2022-11-12T05:13:34.183Z,5.20
2022-11-12T05:18:55.333Z,5.40
2022-11-12T05:24:34.078Z,5.50
2022-11-12T05:29:58.511Z,5.50
2022-11-12T05:35:19.400Z,5.60
2022-11-12T05:40:45.315Z,5.70
2022-11-12T05:46:06.386Z,5.80
2022-11-12T05:51:27.641Z,5.80
2022-11-12T05:56:48.884Z,5.90
2022-11-12T06:02:09.865Z,5.90
2022-11-12T06:07:30.918Z,6.00
2022-11-12T06:12:52.664Z,5.90
2022-11-12T06:18:13.537Z,6.00
2022-11-12T06:23:34.483Z,6.10
2022-11-12T06:28:56.399Z,6.10
2022-11-12T06:34:17.641Z,6.20
2022-11-12T06:39:38.492Z,6.30
2022-11-12T06:44:59.581Z,6.30
2022-11-12T06:50:20.630Z,6.40
2022-11-12T06:55:41.786Z,6.50
2022-11-12T07:01:12.591Z,6.60
2022-11-12T07:06:34.432Z,6.60
2022-11-12T07:11:55.591Z,6.70
2022-11-12T07:17:16.907Z,6.70
2022-11-12T07:22:37.979Z,6.70
2022-11-12T07:27:59.205Z,6.70
2022-11-12T07:33:20.509Z,6.70
2022-11-12T07:38:43.138Z,6.70
2022-11-12T07:44:04.352Z,6.80
2022-11-12T07:49:25.391Z,6.80
2022-11-12T07:54:46.467Z,6.80
2022-11-12T08:00:08.677Z,6.90
2022-11-12T08:05:29.557Z,7.00
2022-11-12T08:10:57.751Z,7.10
2022-11-12T08:16:18.974Z,7.30
2022-11-12T08:21:40.312Z,7.30
2022-11-12T08:27:01.481Z,7.40
2022-11-12T08:32:22.737Z,6.80
2022-11-12T08:37:44.122Z,7.50
2022-11-12T08:43:07.314Z,7.60
2022-11-12T08:48:30.106Z,7.60
2022-11-12T08:53:51.574Z,7.60
2022-11-12T08:59:12.425Z,7.70
2022-11-12T09:04:33.628Z,7.70
2022-11-12T09:09:54.919Z,7.70
2022-11-12T09:15:37.083Z,7.70
2022-11-12T09:21:05.681Z,7.80
2022-11-12T09:26:26.763Z,7.90
2022-11-12T09:31:48.118Z,7.90
2022-11-12T09:37:09.063Z,8.00
2022-11-12T09:42:30.794Z,8.00
2022-11-12T09:47:57.765Z,8.10
2022-11-12T09:53:44.588Z,8.20
2022-11-12T09:59:13.643Z,8.20
2022-11-12T10:04:49.390Z,8.30
2022-11-12T10:10:38.054Z,8.30
2022-11-12T10:16:39.145Z,8.30
2022-11-12T10:22:40.315Z,8.40
2022-11-12T10:28:09.278Z,8.50
2022-11-12T10:33:33.523Z,8.50
2022-11-12T10:38:55.393Z,8.50
2022-11-12T10:44:27.222Z,8.50
2022-11-12T10:50:10.348Z,8.50
2022-11-12T10:55:37.502Z,8.50
2022-11-12T11:01:25.010Z,8.60
2022-11-12T11:06:46.859Z,8.60
2022-11-12T11:12:27.421Z,8.60
2022-11-12T11:17:48.557Z,8.60
2022-11-12T11:23:29.005Z,8.60
2022-11-12T11:29:18.133Z,8.60
2022-11-12T11:34:55.988Z,8.60
2022-11-12T11:40:29.435Z,8.60
2022-11-12T11:46:07.065Z,8.60
2022-11-12T11:51:46.446Z,8.70
2022-11-12T11:57:22.968Z,9.50
2022-11-12T12:02:58.701Z,8.70
2022-11-12T12:08:42.164Z,8.70
2022-11-12T12:14:39.749Z,8.70
2022-11-12T12:20:09.387Z,8.70
2022-11-12T12:25:34.965Z,8.70
2022-11-12T12:31:02.006Z,8.70
2022-11-12T12:36:34.447Z,8.70
2022-11-12T12:42:09.230Z,8.70
2022-11-12T12:47:36.031Z,8.70
2022-11-12T12:53:16.437Z,8.70
2022-11-12T12:58:40.273Z,8.70
2022-11-12T13:04:08.637Z,8.70
2022-11-12T13:09:30.117Z,8.60
2022-11-12T13:15:07.442Z,8.60
2022-11-12T13:20:35.083Z,8.70
2022-11-12T13:26:34.584Z,8.80
2022-11-12T13:32:30.969Z,8.70
2022-11-12T13:38:07.681Z,8.60
2022-11-12T13:43:37.468Z,8.50
2022-11-12T13:49:14.486Z,8.50
2022-11-12T13:54:37.545Z,8.50
2022-11-12T14:00:28.930Z,8.50
2022-11-12T14:05:50.798Z,8.50
2022-11-12T14:11:34.242Z,8.40
2022-11-12T14:17:21.933Z,8.40
2022-11-12T14:22:45.686Z,8.30
2022-11-12T14:28:32.828Z,8.30
2022-11-12T14:33:54.109Z,8.30
2022-11-12T14:39:15.606Z,8.30
2022-11-12T14:44:38.225Z,8.20
2022-11-12T14:49:59.530Z,8.20
2022-11-12T14:55:28.526Z,8.20
2022-11-12T15:00:55.356Z,8.20
2022-11-12T15:06:33.938Z,9.50
2022-11-12T15:11:54.936Z,8.20
2022-11-12T15:17:36.536Z,8.20
2022-11-12T15:22:57.901Z,8.30
2022-11-12T15:28:26.545Z,8.30
2022-11-12T15:33:47.741Z,8.20
2022-11-12T15:39:14.320Z,8.30
2022-11-12T15:44:36.706Z,8.30
2022-11-12T15:49:59.230Z,8.30
2022-11-12T15:55:20.308Z,8.30
2022-11-12T16:00:41.361Z,8.40
2022-11-12T16:06:08.672Z,8.30
2022-11-12T16:11:36.178Z,8.30
2022-11-12T16:16:57.390Z,8.30
2022-11-12T16:22:18.752Z,8.30
2022-11-12T16:27:40.765Z,8.30
2022-11-12T16:33:02.191Z,8.20
2022-11-12T16:38:25.959Z,8.30
2022-11-12T16:43:47.142Z,8.30
2022-11-12T16:49:13.273Z,8.20
2022-11-12T16:54:35.809Z,8.20
2022-11-12T16:59:56.929Z,8.30
2022-11-12T17:05:23.769Z,8.20
2022-11-12T17:10:44.562Z,8.30
2022-11-12T17:16:07.012Z,8.20
2022-11-12T17:21:28.029Z,8.20
2022-11-12T17:26:49.079Z,8.20
2022-11-12T17:32:10.417Z,8.10
2022-11-12T17:37:31.857Z,8.20
2022-11-12T17:42:53.925Z,8.10
2022-11-12T17:48:15.027Z,8.10
2022-11-12T17:53:36.819Z,8.10
2022-11-12T17:58:58.178Z,8.10
2022-11-12T18:04:19.098Z,8.20
2022-11-12T18:09:40.125Z,8.30
2022-11-12T18:15:01.627Z,8.20
2022-11-12T18:20:22.878Z,8.00
2022-11-12T18:25:43.648Z,8.00
2022-11-12T18:31:06.875Z,7.90
2022-11-12T18:36:29.170Z,8.00
2022-11-12T18:41:51.349Z,8.00
2022-11-12T18:47:12.632Z,8.50
2022-11-12T18:52:33.466Z,7.90
2022-11-12T18:57:54.752Z,8.00
2022-11-12T19:03:16.745Z,8.00
2022-11-12T19:08:37.961Z,8.00
2022-11-12T19:13:58.925Z,8.00
2022-11-12T19:19:20.080Z,8.00
2022-11-12T19:24:41.629Z,8.00
2022-11-12T19:30:03.714Z,8.10
2022-11-12T19:35:25.090Z,8.00
2022-11-12T19:40:47.377Z,8.00
2022-11-12T19:46:10.276Z,8.10
2022-11-12T19:51:32.365Z,8.10
2022-11-12T19:56:54.165Z,7.90
2022-11-12T20:02:16.583Z,7.90
2022-11-12T20:07:39.248Z,7.90
2022-11-12T20:13:04.461Z,7.90
2022-11-12T20:18:27.170Z,7.80
2022-11-12T20:23:48.473Z,7.90
2022-11-12T20:29:10.009Z,7.80
2022-11-12T20:34:31.214Z,7.80
2022-11-12T20:39:52.448Z,7.80
2022-11-12T20:45:14.409Z,7.80
2022-11-12T20:50:37.007Z,7.80
2022-11-12T20:56:07.700Z,7.80
2022-11-12T21:01:30.508Z,7.80
2022-11-12T21:06:52.089Z,7.80
2022-11-12T21:12:13.627Z,7.80
2022-11-12T21:17:35.057Z,7.80
2022-11-12T21:22:58.129Z,7.80
2022-11-12T21:28:20.633Z,7.60
2022-11-12T21:33:44.444Z,7.50
2022-11-12T21:39:06.733Z,7.60
2022-11-12T21:44:28.350Z,7.50
2022-11-12T21:49:49.560Z,7.50
2022-11-12T21:55:10.866Z,7.50
2022-11-12T22:00:47.615Z,7.60
2022-11-12T22:06:12.051Z,7.60
2022-11-12T22:11:33.079Z,7.60
2022-11-12T22:16:54.509Z,7.60
2022-11-12T22:22:18.788Z,7.60
2022-11-12T22:27:39.981Z,7.60
2022-11-12T22:33:01.882Z,7.60
2022-11-12T22:38:23.360Z,7.60
2022-11-12T22:43:48.113Z,7.60
2022-11-12T22:49:09.588Z,7.70
2022-11-12T22:54:30.804Z,7.70
2022-11-12T22:59:51.902Z,7.70
2022-11-12T23:05:13.063Z,7.80
2022-11-12T23:10:34.252Z,7.80
2022-11-12T23:15:55.757Z,7.70
2022-11-12T23:21:19.549Z,7.60
2022-11-12T23:26:40.600Z,7.60
2022-11-12T23:32:02.206Z,7.50
2022-11-12T23:37:24.737Z,7.40
2022-11-12T23:42:46.339Z,7.40
2022-11-12T23:48:07.606Z,7.30
2022-11-12T23:53:28.532Z,7.20
2022-11-12T23:58:53.054Z,7.30
